Time;durP1;ratioP1;P1;durP2;ratioP2;P2;SDS_P1;SDS_P2;PMS_P1;PMS_P2;Temp;Humidity;BMP_temperature;BMP_pressure;BME280_temperature;BME280_humidity;BME280_pressure;Samples;Min_cycle;Max_cycle;Signal;HPM_P1;HPM_P2
2023/03/31 00:01:10;;;;;;;12.52;2.90;;;;;;;9.70;100.00;100211.91;5048450;28;20073;-60
2023/03/31 00:03:42;;;;;;;12.80;3.30;;;;;;;9.73;100.00;100203.00;5049570;28;20076;-62
2023/03/31 00:06:16;;;;;;;12.25;2.83;;;;;;;9.73;100.00;100198.56;5051485;28;20049;-60
2023/03/31 00:08:50;;;;;;;15.20;3.65;;;;;;;9.72;100.00;100188.16;5053105;28;20041;-60
2023/03/31 00:11:19;;;;;;;11.65;3.42;;;;;;;9.65;100.00;100185.16;5050685;28;20087;-60
2023/03/31 00:13:49;;;;;;;9.15;2.88;;;;;;;9.67;100.00;100182.41;5049251;28;20528;-60
2023/03/31 00:16:22;;;;;;;11.80;2.83;;;;;;;9.64;100.00;100179.06;5050513;28;20049;-59
2023/03/31 00:18:50;;;;;;;11.98;3.03;;;;;;;9.64;100.00;100179.06;5050276;28;20540;-60
2023/03/31 00:21:32;;;;;;;12.60;3.45;;;;;;;9.66;100.00;100168.44;5048914;28;20041;-60
2023/03/31 00:24:03;;;;;;;10.23;2.20;;;;;;;9.65;100.00;100169.41;5052476;28;20067;-60
2023/03/31 00:26:32;;;;;;;11.82;2.80;;;;;;;9.71;100.00;100161.09;5052440;28;20049;-59
2023/03/31 00:29:01;;;;;;;7.90;2.42;;;;;;;9.67;100.00;100157.00;5052630;28;20049;-61
2023/03/31 00:31:31;;;;;;;10.45;2.20;;;;;;;9.68;100.00;100145.56;5052365;28;20044;-61
2023/03/31 00:33:59;;;;;;;7.28;2.30;;;;;;;9.64;100.00;100149.38;5048799;28;20621;-60
2023/03/31 00:36:28;;;;;;;11.25;2.83;;;;;;;9.69;100.00;100151.63;5049561;28;20571;-60
2023/03/31 00:38:59;;;;;;;11.20;3.33;;;;;;;9.71;100.00;100139.25;5050758;28;20048;-60
2023/03/31 00:41:27;;;;;;;8.70;2.20;;;;;;;9.73;100.00;100137.34;5047821;28;20044;-59
2023/03/31 00:44:07;;;;;;;9.75;2.22;;;;;;;9.74;100.00;100128.53;5048973;28;20037;-60
2023/03/31 00:46:42;;;;;;;7.05;2.40;;;;;;;9.75;100.00;100124.94;5048522;28;20041;-59
2023/03/31 00:49:16;;;;;;;8.73;2.42;;;;;;;9.77;100.00;100117.78;5052178;28;20091;-59
2023/03/31 00:51:45;;;;;;;12.77;2.80;;;;;;;9.73;100.00;100124.22;5052188;28;20400;-60
2023/03/31 00:54:14;;;;;;;8.98;2.97;;;;;;;9.71;100.00;100124.31;5051913;28;20057;-61
2023/03/31 00:56:46;;;;;;;12.18;2.47;;;;;;;9.72;100.00;100127.78;5052070;28;20056;-59
2023/03/31 00:59:16;;;;;;;9.77;2.40;;;;;;;9.74;100.00;100123.28;5052338;28;20107;-61
2023/03/31 01:01:49;;;;;;;10.30;2.20;;;;;;;9.71;100.00;100119.06;5052118;28;20045;-61
2023/03/31 01:04:21;;;;;;;9.85;2.42;;;;;;;9.76;100.00;100108.22;5051967;28;20107;-61
2023/03/31 01:06:59;;;;;;;10.35;2.42;;;;;;;9.76;100.00;100109.09;5052085;28;20102;-60
2023/03/31 01:09:33;;;;;;;9.55;2.47;;;;;;;9.75;100.00;100098.69;5051857;28;20106;-60
2023/03/31 01:12:06;;;;;;;9.93;2.70;;;;;;;9.74;100.00;100086.50;5051980;28;20045;-60
2023/03/31 01:14:34;;;;;;;7.68;2.65;;;;;;;9.71;100.00;100092.00;5051780;28;20052;-61
2023/03/31 01:17:08;;;;;;;9.65;2.33;;;;;;;9.63;100.00;100079.41;5051916;28;20045;-60
2023/03/31 01:19:50;;;;;;;10.60;2.25;;;;;;;9.63;100.00;100064.50;5051925;28;20049;-60
2023/03/31 01:22:49;;;;;;;12.27;2.60;;;;;;;9.57;100.00;100058.84;5050885;28;20045;-61
2023/03/31 01:25:55;;;;;;;9.68;2.15;;;;;;;9.54;100.00;100053.84;5046712;28;20045;-61
2023/03/31 01:28:33;;;;;;;6.47;2.03;;;;;;;9.52;100.00;100046.06;5051785;28;20216;-61
2023/03/31 01:31:41;;;;;;;5.88;1.95;;;;;;;9.54;100.00;100038.09;5051828;28;20495;-61
2023/03/31 01:34:43;;;;;;;8.43;1.75;;;;;;;9.49;100.00;100033.19;5031749;28;20053;-60
2023/03/31 01:37:41;;;;;;;6.18;1.60;;;;;;;9.53;100.00;100029.38;5053458;28;20049;-60
2023/03/31 01:40:24;;;;;;;6.90;1.45;;;;;;;9.50;100.00;100021.72;5055803;28;20083;-60
2023/03/31 01:42:56;;;;;;;7.68;1.40;;;;;;;9.51;100.00;100023.41;5055517;28;20542;-61
2023/03/31 01:45:37;;;;;;;7.25;1.65;;;;;;;9.48;100.00;100000.00;5054173;28;20102;-61
2023/03/31 01:48:13;;;;;;;7.15;1.40;;;;;;;9.55;100.00;99995.16;5055530;28;20045;-59
2023/03/31 01:50:46;;;;;;;6.95;1.40;;;;;;;9.48;100.00;99989.50;5055526;28;20104;-61
2023/03/31 01:53:20;;;;;;;8.48;1.63;;;;;;;9.54;100.00;99991.66;5055104;28;20052;-61
2023/03/31 01:56:01;;;;;;;7.53;1.90;;;;;;;9.48;100.00;99984.25;5053819;28;20381;-61
2023/03/31 01:58:35;;;;;;;9.80;1.80;;;;;;;9.55;100.00;99982.03;5051944;28;20072;-61
2023/03/31 02:01:10;;;;;;;7.22;1.67;;;;;;;9.61;100.00;99985.03;5053681;28;20049;-61
2023/03/31 02:03:45;;;;;;;8.50;1.73;;;;;;;9.53;100.00;99979.50;5054910;28;20064;-60
2023/03/31 02:06:23;;;;;;;10.75;2.25;;;;;;;9.51;100.00;99965.66;5051886;28;20069;-60
2023/03/31 02:08:58;;;;;;;7.05;2.35;;;;;;;9.50;100.00;99957.91;5053596;28;20381;-60
2023/03/31 02:11:29;;;;;;;10.50;2.78;;;;;;;9.51;100.00;99955.16;5055050;28;20048;-60
2023/03/31 02:14:01;;;;;;;9.65;2.90;;;;;;;9.48;100.00;99953.59;5053657;28;20452;-60
2023/03/31 02:16:33;;;;;;;11.05;3.00;;;;;;;9.54;100.00;99949.66;5054894;28;20052;-59
2023/03/31 02:19:05;;;;;;;12.80;3.28;;;;;;;9.48;100.00;99942.25;5054974;28;20124;-60
2023/03/31 02:21:36;;;;;;;11.88;2.78;;;;;;;9.55;100.00;99930.34;5054768;28;20072;-61
2023/03/31 02:24:10;;;;;;;10.35;3.20;;;;;;;9.52;100.00;99922.72;5053455;28;20049;-60
2023/03/31 02:26:46;;;;;;;9.90;2.65;;;;;;;9.53;100.00;99927.00;5048579;28;20053;-61
2023/03/31 02:29:14;;;;;;;12.05;3.13;;;;;;;9.42;100.00;99913.84;5051190;28;20075;-61
2023/03/31 02:31:49;;;;;;;13.93;3.60;;;;;;;9.46;100.00;99912.66;5052598;28;20120;-60
2023/03/31 02:34:17;;;;;;;13.63;3.72;;;;;;;9.51;100.00;99894.78;5054638;28;20123;-59
2023/03/31 02:36:45;;;;;;;8.38;3.08;;;;;;;9.52;100.00;99896.47;5054615;28;20045;-60
2023/03/31 02:39:18;;;;;;;11.30;2.83;;;;;;;9.51;100.00;99891.34;5050863;28;20056;-60
2023/03/31 02:41:47;;;;;;;11.93;3.15;;;;;;;9.57;100.00;99885.59;5048779;28;20218;-59
2023/03/31 02:44:17;;;;;;;13.88;4.35;;;;;;;9.52;100.00;99883.34;5052341;28;20504;-60
2023/03/31 02:46:46;;;;;;;17.35;3.58;;;;;;;9.56;100.00;99868.19;5051663;28;20183;-59
2023/03/31 02:49:16;;;;;;;16.67;3.03;;;;;;;9.56;100.00;99857.69;5049387;28;20447;-59
2023/03/31 02:51:59;;;;;;;11.20;2.80;;;;;;;9.64;100.00;99856.16;5050894;28;20048;-60
2023/03/31 02:54:59;;;;;;;14.27;3.10;;;;;;;9.60;100.00;99841.59;5054246;28;20049;-60
2023/03/31 02:58:03;;;;;;;9.10;2.22;;;;;;;9.64;100.00;99834.31;5051735;28;20095;-61
2023/03/31 03:00:40;;;;;;;;;;;;;;;9.58;100.00;99825.09;5018143;28;20143;-61
2023/03/31 03:03:27;;;;;;;12.35;2.58;;;;;;;9.58;100.00;99819.03;5050729;28;20437;-61
2023/03/31 03:06:04;;;;;;;10.98;2.22;;;;;;;9.57;100.00;99805.09;5048708;28;20080;-60
2023/03/31 03:08:45;;;;;;;7.55;1.88;;;;;;;9.66;100.00;99800.06;5053954;28;20496;-60
2023/03/31 03:11:21;;;;;;;13.50;2.00;;;;;;;9.56;100.00;99795.53;5052561;28;20147;-60
2023/03/31 03:13:53;;;;;;;8.27;2.05;;;;;;;9.58;100.00;99788.34;5051550;28;20576;-60
2023/03/31 03:16:27;;;;;;;10.23;1.93;;;;;;;9.54;100.00;99786.09;5049062;28;20102;-60
2023/03/31 03:18:57;;;;;;;9.15;1.80;;;;;;;9.53;100.00;99782.66;5053762;28;21011;-60
2023/03/31 03:21:26;;;;;;;10.15;1.90;;;;;;;9.53;100.00;99785.28;5053806;28;20037;-60
2023/03/31 03:23:54;;;;;;;8.30;2.22;;;;;;;9.52;100.00;99783.59;5053693;28;20059;-59
2023/03/31 03:26:26;;;;;;;9.38;2.33;;;;;;;9.48;100.00;99779.53;5053761;28;20041;-59
2023/03/31 03:28:55;;;;;;;13.98;2.45;;;;;;;9.51;100.00;99781.91;5053623;28;20075;-60
2023/03/31 03:31:25;;;;;;;10.85;2.70;;;;;;;9.49;100.00;99768.09;5049461;28;20048;-60
2023/03/31 03:33:56;;;;;;;10.00;1.83;;;;;;;9.44;100.00;99757.94;5051296;28;20041;-60
2023/03/31 03:36:24;;;;;;;10.75;2.53;;;;;;;9.43;100.00;99745.75;5053453;28;20098;-59
2023/03/31 03:38:52;;;;;;;12.15;2.50;;;;;;;9.46;100.00;99734.19;5053505;28;20091;-60
2023/03/31 03:41:21;;;;;;;11.63;2.83;;;;;;;9.45;100.00;99733.38;5048809;28;20081;-61
2023/03/31 03:43:49;;;;;;;12.35;2.25;;;;;;;9.42;100.00;99724.88;5050261;28;20071;-60
2023/03/31 03:46:17;;;;;;;11.18;2.30;;;;;;;9.44;100.00;99729.06;5053213;28;20068;-60
2023/03/31 03:48:49;;;;;;;12.43;2.72;;;;;;;9.42;100.00;99725.75;5051365;28;20048;-60
2023/03/31 03:51:20;;;;;;;11.82;2.22;;;;;;;9.43;100.00;99716.06;5049447;28;20072;-60
2023/03/31 03:53:48;;;;;;;10.82;2.97;;;;;;;9.43;100.00;99701.16;5052001;28;20057;-60
2023/03/31 03:56:16;;;;;;;11.38;2.38;;;;;;;9.44;100.00;99697.56;5053009;28;20052;-61
2023/03/31 03:58:45;;;;;;;12.52;2.45;;;;;;;9.48;100.00;99698.19;5052859;28;20132;-60
2023/03/31 04:01:13;;;;;;;12.07;2.05;;;;;;;9.49;100.00;99707.72;5052731;28;20148;-60
2023/03/31 04:03:41;;;;;;;11.30;2.05;;;;;;;9.60;100.00;99696.38;5050976;28;20072;-59
2023/03/31 04:06:10;;;;;;;11.77;2.35;;;;;;;9.49;100.00;99694.59;5049067;28;20522;-60
2023/03/31 04:08:39;;;;;;;12.75;2.83;;;;;;;9.51;100.00;99679.56;5052148;28;20045;-60
2023/03/31 04:11:15;;;;;;;12.23;2.75;;;;;;;9.50;100.00;99666.56;5052851;28;20064;-60
2023/03/31 04:13:46;;;;;;;13.35;2.22;;;;;;;9.57;100.00;99672.97;5050588;28;20095;-62
2023/03/31 04:16:15;;;;;;;13.95;3.03;;;;;;;9.44;100.00;99673.97;5048410;28;20055;-60
2023/03/31 04:18:47;;;;;;;13.00;3.40;;;;;;;9.51;100.00;99666.44;5051858;28;20049;-60
2023/03/31 04:21:21;;;;;;;11.87;3.17;;;;;;;9.48;100.00;99666.69;5053003;28;20075;-60
2023/03/31 04:23:57;;;;;;;12.32;2.97;;;;;;;9.47;100.00;99665.00;5052557;28;20492;-61
2023/03/31 04:26:37;;;;;;;12.52;2.88;;;;;;;9.47;100.00;99650.13;5052583;28;20059;-60
2023/03/31 04:29:06;;;;;;;10.45;2.83;;;;;;;9.41;100.00;99636.66;5052491;28;20496;-60
2023/03/31 04:31:37;;;;;;;16.98;2.75;;;;;;;9.38;100.00;99627.22;5052312;28;20486;-60
2023/03/31 04:34:12;;;;;;;12.45;2.90;;;;;;;9.42;100.00;99620.78;5052450;28;20056;-61
2023/03/31 04:36:45;;;;;;;14.30;3.15;;;;;;;9.39;100.00;99613.13;5052257;28;20045;-61
2023/03/31 04:39:16;;;;;;;16.08;3.08;;;;;;;9.39;100.00;99600.00;5052356;28;20041;-61
2023/03/31 04:41:44;;;;;;;12.18;3.25;;;;;;;9.41;100.00;99599.91;5052324;28;20151;-61
2023/03/31 04:44:12;;;;;;;14.63;3.10;;;;;;;9.40;100.00;99590.34;5052330;28;20103;-60
2023/03/31 04:46:41;;;;;;;15.35;3.05;;;;;;;9.40;100.00;99583.31;5051379;28;20048;-60
2023/03/31 04:49:09;;;;;;;16.65;3.17;;;;;;;9.42;100.00;99570.91;5048553;28;20033;-60
2023/03/31 04:51:37;;;;;;;13.45;3.50;;;;;;;9.53;100.00;99559.56;5050505;28;20080;-61
2023/03/31 04:54:06;;;;;;;10.25;3.00;;;;;;;9.52;100.00;99559.69;5052050;28;20049;-60
2023/03/31 04:56:34;;;;;;;16.15;2.92;;;;;;;9.37;100.00;99549.44;5051865;28;20053;-61
2023/03/31 04:59:03;;;;;;;11.43;2.80;;;;;;;9.45;100.00;99538.34;5051996;28;20052;-59
2023/03/31 05:01:34;;;;;;;13.70;2.58;;;;;;;9.38;100.00;99538.00;5051913;28;20040;-60
2023/03/31 05:04:04;;;;;;;12.80;2.55;;;;;;;9.31;100.00;99536.81;5050806;28;20412;-60
2023/03/31 05:06:33;;;;;;;16.48;3.30;;;;;;;9.32;100.00;99532.41;5051941;28;20094;-59
2023/03/31 05:09:01;;;;;;;8.43;2.63;;;;;;;9.39;100.00;99520.47;5048888;28;20186;-60
2023/03/31 05:11:30;;;;;;;14.30;2.90;;;;;;;9.35;100.00;99521.66;5046007;28;20083;-59
2023/03/31 05:13:58;;;;;;;9.73;2.75;;;;;;;9.37;100.00;99517.16;5050780;28;20044;-59
2023/03/31 05:16:27;;;;;;;9.95;2.30;;;;;;;9.36;100.00;99508.41;5045965;28;20044;-60
2023/03/31 05:18:55;;;;;;;17.10;2.97;;;;;;;9.33;100.00;99502.59;5050491;28;20067;-59
2023/03/31 05:21:25;;;;;;;11.88;2.75;;;;;;;9.27;100.00;99496.91;5051664;28;20045;-59
2023/03/31 05:23:54;;;;;;;11.05;2.22;;;;;;;9.29;100.00;99488.91;5051815;28;20071;-61
2023/03/31 05:26:23;;;;;;;9.35;2.35;;;;;;;9.29;100.00;99487.09;5050472;28;20132;-59
2023/03/31 05:28:53;;;;;;;14.30;3.05;;;;;;;9.26;100.00;99482.09;5051838;28;20098;-59
2023/03/31 05:31:21;;;;;;;12.13;2.42;;;;;;;9.21;100.00;99480.81;5051656;28;20044;-60
2023/03/31 05:33:50;;;;;;;8.57;2.40;;;;;;;9.21;100.00;99480.81;5051623;28;20049;-60
2023/03/31 05:36:22;;;;;;;10.32;2.13;;;;;;;9.23;100.00;99471.88;5047994;28;20444;-59
2023/03/31 05:38:51;;;;;;;13.50;2.58;;;;;;;9.25;100.00;99472.56;5048076;28;20052;-60
2023/03/31 05:41:19;;;;;;;9.35;2.28;;;;;;;9.33;100.00;99471.13;5046638;28;20081;-60
2023/03/31 05:43:48;;;;;;;13.43;2.60;;;;;;;9.34;100.00;99462.28;5049977;28;20526;-59
2023/03/31 05:46:18;;;;;;;11.57;2.45;;;;;;;9.24;100.00;99459.56;5047829;28;20045;-60
2023/03/31 05:48:46;;;;;;;11.55;2.75;;;;;;;9.25;100.00;99461.25;5048745;28;20075;-60
2023/03/31 05:51:14;;;;;;;12.27;2.42;;;;;;;9.34;100.00;99454.41;5051675;28;20045;-60
2023/03/31 05:53:42;;;;;;;13.45;2.67;;;;;;;9.33;100.00;99453.56;5049566;28;20082;-60
2023/03/31 05:56:11;;;;;;;11.57;2.88;;;;;;;9.42;100.00;99447.56;5046614;28;20115;-60
2023/03/31 05:58:39;;;;;;;10.02;2.10;;;;;;;9.34;100.00;99438.66;5050612;28;20502;-60
2023/03/31 06:01:09;;;;;;;9.05;2.42;;;;;;;9.39;100.00;99424.19;5051438;28;20408;-59
2023/03/31 06:03:41;;;;;;;13.75;2.72;;;;;;;9.34;100.00;99425.53;5050073;28;20500;-59
2023/03/31 06:06:11;;;;;;;14.68;3.00;;;;;;;9.45;100.00;99418.44;5051465;28;20077;-60
2023/03/31 06:08:40;;;;;;;11.85;3.38;;;;;;;9.44;100.00;99418.59;5050549;28;20053;-59
2023/03/31 06:11:10;;;;;;;8.55;2.33;;;;;;;9.41;100.00;99424.09;5051424;28;20039;-60
2023/03/31 06:13:39;;;;;;;13.85;2.80;;;;;;;9.47;100.00;99424.41;5051298;28;20045;-59
2023/03/31 06:16:07;;;;;;;12.68;2.53;;;;;;;9.43;100.00;99416.91;5047024;28;20408;-59
2023/03/31 06:18:36;;;;;;;7.18;2.08;;;;;;;9.49;100.00;99411.16;5049097;28;20041;-60
2023/03/31 06:21:06;;;;;;;11.15;2.78;;;;;;;9.49;100.00;99411.16;5051389;28;20516;-60
2023/03/31 06:23:35;;;;;;;12.40;2.33;;;;;;;9.46;100.00;99420.13;5052155;28;20048;-60
2023/03/31 06:26:07;;;;;;;11.75;2.50;;;;;;;9.46;100.00;99412.25;5054757;28;20059;-60
2023/03/31 06:28:35;;;;;;;9.90;2.08;;;;;;;9.51;100.00;99403.97;5054727;28;20053;-60
2023/03/31 06:31:05;;;;;;;6.90;1.92;;;;;;;9.52;100.00;99413.53;5054862;28;20045;-59
2023/03/31 06:33:35;;;;;;;8.95;1.85;;;;;;;9.50;100.00;99401.50;5054677;28;20114;-60
2023/03/31 06:36:05;;;;;;;8.60;2.40;;;;;;;9.52;100.00;99403.03;5054673;28;20492;-59
2023/03/31 06:38:37;;;;;;;11.80;2.63;;;;;;;9.58;100.00;99399.88;5054514;28;20053;-59
2023/03/31 06:41:06;;;;;;;5.50;1.80;;;;;;;9.59;100.00;99406.78;5054566;28;20044;-59
2023/03/31 06:43:38;;;;;;;5.43;1.48;;;;;;;9.61;100.00;99397.00;5054463;28;20049;-59
2023/03/31 06:46:06;;;;;;;10.75;2.00;;;;;;;9.65;100.00;99400.19;5054418;28;20053;-59
2023/03/31 06:48:35;;;;;;;8.30;1.63;;;;;;;9.69;100.00;99401.59;5053148;28;20155;-58
2023/03/31 06:51:05;;;;;;;8.80;1.40;;;;;;;9.67;100.00;99402.69;5054389;28;20450;-60
2023/03/31 06:53:36;;;;;;;9.40;1.70;;;;;;;9.68;100.00;99391.22;5053447;28;20056;-60
2023/03/31 06:56:06;;;;;;;5.25;1.30;;;;;;;9.67;100.00;99385.16;5049763;28;20047;-60
2023/03/31 06:58:35;;;;;;;6.10;1.30;;;;;;;9.68;100.00;99386.84;5050848;28;20057;-60
2023/03/31 07:01:04;;;;;;;8.90;1.67;;;;;;;9.73;100.00;99379.38;5052816;28;20041;-60
2023/03/31 07:03:34;;;;;;;8.70;1.83;;;;;;;9.70;100.00;99384.91;5054039;28;20049;-60
2023/03/31 07:06:03;;;;;;;7.13;1.77;;;;;;;9.69;100.00;99377.16;5050555;28;20409;-60
2023/03/31 07:08:31;;;;;;;5.00;1.48;;;;;;;9.67;100.00;99376.44;5050466;28;20075;-60
2023/03/31 07:11:03;;;;;;;5.85;1.30;;;;;;;9.73;100.00;99370.69;5051443;28;20103;-60
2023/03/31 07:13:32;;;;;;;8.45;1.80;;;;;;;9.74;100.00;99372.34;5053951;28;20052;-60
2023/03/31 07:16:00;;;;;;;7.05;1.50;;;;;;;9.74;100.00;99361.84;5053796;28;20381;-61
2023/03/31 07:18:33;;;;;;;9.77;1.60;;;;;;;9.73;100.00;99365.44;5053750;28;20136;-60
2023/03/31 07:21:03;;;;;;;5.10;1.40;;;;;;;9.77;100.00;99372.06;5052869;28;20467;-61
2023/03/31 07:23:36;;;;;;;5.45;1.30;;;;;;;9.80;100.00;99377.06;5050824;28;20103;-60
2023/03/31 07:26:05;;;;;;;7.57;1.25;;;;;;;9.79;100.00;99372.78;5052580;28;20044;-61
2023/03/31 07:28:33;;;;;;;7.03;1.40;;;;;;;9.77;100.00;99382.59;5053553;28;20055;-59
2023/03/31 07:31:02;;;;;;;7.35;1.30;;;;;;;9.78;100.00;99379.00;5048444;28;20412;-61
2023/03/31 07:33:30;;;;;;;6.47;1.20;;;;;;;9.76;100.00;99371.25;5049852;28;20047;-60
2023/03/31 07:35:58;;;;;;;7.13;1.98;;;;;;;9.74;100.00;99367.09;5050755;28;20037;-60
2023/03/31 07:38:38;;;;;;;5.90;1.45;;;;;;;9.68;100.00;99372.84;5053240;28;20080;-60
2023/03/31 07:41:10;;;;;;;5.85;1.90;;;;;;;9.73;100.00;99355.75;5053267;28;20511;-59
2023/03/31 07:43:39;;;;;;;8.52;1.42;;;;;;;9.75;100.00;99359.09;5053399;28;20508;-59
2023/03/31 07:46:07;;;;;;;6.20;1.63;;;;;;;9.72;100.00;99346.22;5050314;28;20048;-59
2023/03/31 07:48:36;;;;;;;7.95;1.50;;;;;;;9.77;100.00;99351.06;5050173;28;20513;-59
2023/03/31 07:51:04;;;;;;;7.95;2.10;;;;;;;9.74;100.00;99346.09;5051935;28;20041;-59
2023/03/31 07:53:32;;;;;;;8.45;1.80;;;;;;;9.78;100.00;99337.00;5053033;28;20053;-59
2023/03/31 07:56:00;;;;;;;7.30;2.00;;;;;;;9.81;100.00;99331.47;5053141;28;20061;-59
2023/03/31 07:58:30;;;;;;;7.95;2.10;;;;;;;9.74;100.00;99325.91;5053026;28;20472;-59
2023/03/31 08:00:58;;;;;;;5.45;1.70;;;;;;;9.76;100.00;99321.38;5049810;28;20118;-59
2023/03/31 08:03:26;;;;;;;10.48;2.20;;;;;;;9.73;100.00;99315.53;5049895;28;20118;-60
2023/03/31 08:05:55;;;;;;;8.32;1.60;;;;;;;9.76;100.00;99316.13;5049364;28;20053;-60
2023/03/31 08:08:23;;;;;;;5.63;1.50;;;;;;;9.71;100.00;99310.44;5049458;28;20048;-59
2023/03/31 08:10:51;;;;;;;7.18;1.70;;;;;;;9.71;100.00;99312.25;5048423;28;20081;-60
2023/03/31 08:13:19;;;;;;;7.68;1.30;;;;;;;9.72;100.00;99311.25;5049288;28;20079;-60
2023/03/31 08:15:49;;;;;;;6.38;1.48;;;;;;;9.73;100.00;99305.03;5051160;28;20511;-60
2023/03/31 08:18:17;;;;;;;3.42;1.13;;;;;;;9.75;100.00;99305.75;5048365;28;20072;-60
2023/03/31 08:20:48;;;;;;;5.60;1.30;;;;;;;9.81;100.00;99298.16;5048900;28;20515;-60
2023/03/31 08:23:16;;;;;;;8.20;1.40;;;;;;;9.86;100.00;99308.28;5049480;28;20103;-59
2023/03/31 08:25:44;;;;;;;5.63;1.30;;;;;;;9.90;100.00;99298.34;5052556;28;20051;-59
2023/03/31 08:28:13;;;;;;;2.97;0.90;;;;;;;9.98;100.00;99296.72;5050302;28;20041;-60
2023/03/31 08:30:41;;;;;;;3.95;1.30;;;;;;;10.11;100.00;99298.25;5048178;28;20041;-60
2023/03/31 08:33:12;;;;;;;8.07;1.77;;;;;;;10.28;100.00;99287.09;5051852;28;20492;-60
2023/03/31 08:35:40;;;;;;;8.65;2.00;;;;;;;10.24;100.00;99283.09;5052348;28;20098;-60
2023/03/31 08:38:08;;;;;;;7.63;2.17;;;;;;;10.25;100.00;99291.78;5052210;28;20049;-60
2023/03/31 08:40:41;;;;;;;6.57;1.80;;;;;;;10.35;100.00;99287.41;5052227;28;20048;-60
2023/03/31 08:43:18;;;;;;;10.75;2.30;;;;;;;10.37;100.00;99288.09;5050871;28;20045;-59
2023/03/31 08:45:50;;;;;;;10.73;2.13;;;;;;;10.52;100.00;99295.59;5052365;28;20041;-59
2023/03/31 08:48:26;;;;;;;9.98;2.00;;;;;;;10.61;100.00;99287.72;5052417;28;20049;-60
2023/03/31 08:51:00;;;;;;;10.13;2.55;;;;;;;10.71;100.00;99279.81;5052527;28;20045;-59
2023/03/31 08:53:31;;;;;;;10.93;2.28;;;;;;;10.77;100.00;99287.16;5051902;28;20040;-59
2023/03/31 08:56:00;;;;;;;10.63;3.25;;;;;;;10.80;100.00;99279.00;5050832;28;20057;-60
2023/03/31 08:58:36;;;;;;;14.02;3.17;;;;;;;10.89;100.00;99276.50;5052017;28;20403;-60
2023/03/31 09:01:15;;;;;;;10.25;2.50;;;;;;;10.98;100.00;99279.09;5052066;28;20041;-60
2023/03/31 09:03:59;;;;;;;12.13;2.30;;;;;;;11.04;100.00;99293.50;5050036;28;20056;-59
2023/03/31 09:06:36;;;;;;;11.68;2.65;;;;;;;11.13;100.00;99281.31;5048578;28;20052;-59
2023/03/31 09:09:13;;;;;;;14.25;3.47;;;;;;;11.12;100.00;99280.44;5050429;28;20056;-60
2023/03/31 09:11:47;;;;;;;13.38;2.85;;;;;;;11.13;100.00;99278.66;5051841;28;20041;-60
2023/03/31 09:14:26;;;;;;;12.20;3.10;;;;;;;11.25;100.00;99277.53;5049830;28;20053;-60
2023/03/31 09:17:05;;;;;;;11.98;2.53;;;;;;;11.30;100.00;99277.09;5047351;28;20053;-59
2023/03/31 09:19:38;;;;;;;15.65;2.97;;;;;;;11.29;100.00;99284.16;5047584;28;20059;-60
2023/03/31 09:22:15;;;;;;;16.55;2.80;;;;;;;11.29;100.00;99281.53;5049566;28;20037;-60
2023/03/31 09:24:50;;;;;;;13.55;2.88;;;;;;;11.22;100.00;99283.09;5051781;28;20110;-59
2023/03/31 09:27:21;;;;;;;14.25;4.13;;;;;;;11.27;100.00;99275.56;5051562;28;20048;-60
2023/03/31 09:29:52;;;;;;;15.60;3.17;;;;;;;11.33;100.00;99264.50;5051579;28;20037;-60
2023/03/31 09:32:23;;;;;;;11.60;3.20;;;;;;;11.35;100.00;99258.25;5050339;28;20049;-61
2023/03/31 09:34:57;;;;;;;14.18;3.30;;;;;;;11.37;100.00;99265.03;5048190;28;20507;-60
2023/03/31 09:37:28;;;;;;;13.80;3.47;;;;;;;11.48;100.00;99256.16;5050526;28;20053;-60
2023/03/31 09:40:01;;;;;;;17.08;3.15;;;;;;;11.41;100.00;99258.53;5051570;28;20057;-60
2023/03/31 09:42:30;;;;;;;14.57;3.63;;;;;;;11.46;100.00;99261.53;5051689;28;20056;-60
2023/03/31 09:44:58;;;;;;;15.98;3.38;;;;;;;11.49;100.00;99255.16;5051761;28;20049;-60
2023/03/31 09:47:32;;;;;;;15.23;2.95;;;;;;;11.62;100.00;99253.03;5051685;28;20440;-60
2023/03/31 09:50:02;;;;;;;19.25;4.15;;;;;;;11.69;100.00;99255.91;5051649;28;20045;-60
2023/03/31 09:52:31;;;;;;;12.98;3.15;;;;;;;11.79;100.00;99251.44;5051199;28;20060;-61
2023/03/31 09:55:01;;;;;;;13.73;3.15;;;;;;;11.78;100.00;99251.53;5050003;28;20073;-59
2023/03/31 09:57:34;;;;;;;13.52;2.75;;;;;;;11.80;100.00;99246.97;5048556;28;20590;-59
2023/03/31 10:00:14;;;;;;;14.95;2.88;;;;;;;11.83;100.00;99238.78;5050973;28;20044;-59
2023/03/31 10:02:45;;;;;;;14.32;3.05;;;;;;;11.86;100.00;99238.47;5051267;28;20037;-59
2023/03/31 10:05:26;;;;;;;15.35;2.85;;;;;;;11.94;100.00;99236.00;5051951;28;20044;-59
2023/03/31 10:08:20;;;;;;;13.65;3.13;;;;;;;12.00;100.00;99232.75;5052504;28;20501;-60
2023/03/31 10:10:52;;;;;;;12.43;3.10;;;;;;;12.03;100.00;99228.16;5050330;28;20053;-60
2023/03/31 10:13:24;;;;;;;11.17;2.87;;;;;;;11.99;100.00;99235.53;5053736;28;20066;-60
2023/03/31 10:15:54;;;;;;;14.73;2.97;;;;;;;12.02;100.00;99229.16;5049446;28;20099;-60
2023/03/31 10:18:33;;;;;;;9.88;2.58;;;;;;;11.97;100.00;99222.50;5051654;28;20598;-59
2023/03/31 10:21:07;;;;;;;12.43;3.30;;;;;;;11.99;100.00;99231.09;5051482;28;20380;-60
2023/03/31 10:23:36;;;;;;;13.27;2.63;;;;;;;12.00;100.00;99224.03;5051762;28;20037;-59
2023/03/31 10:26:05;;;;;;;14.82;2.70;;;;;;;11.98;100.00;99220.69;5054803;28;20449;-59
2023/03/31 10:28:35;;;;;;;14.90;3.00;;;;;;;12.04;100.00;99229.81;5052609;28;20057;-59
2023/03/31 10:31:05;;;;;;;17.77;3.03;;;;;;;12.04;100.00;99222.75;5050400;28;20488;-59
2023/03/31 10:33:40;;;;;;;15.23;3.00;;;;;;;12.05;100.00;99218.31;5051450;28;20048;-60
2023/03/31 10:36:19;;;;;;;15.07;2.80;;;;;;;12.09;100.00;99235.47;5050911;28;20059;-60
2023/03/31 10:38:48;;;;;;;14.77;3.08;;;;;;;11.98;100.00;99226.81;5061885;28;20076;-60
2023/03/31 10:41:19;;;;;;;16.30;2.65;;;;;;;12.06;100.00;99222.59;5059927;28;20715;-60
2023/03/31 10:43:51;;;;;;;14.57;3.33;;;;;;;12.15;100.00;99216.44;5063336;28;20045;-59
2023/03/31 10:46:19;;;;;;;13.52;2.50;;;;;;;12.25;100.00;99214.53;5060576;28;20548;-60
2023/03/31 10:48:48;;;;;;;14.82;2.70;;;;;;;12.31;100.00;99210.47;5062253;28;20044;-60
2023/03/31 10:51:19;;;;;;;13.38;2.83;;;;;;;12.45;100.00;99211.78;5059115;28;20045;-60
2023/03/31 10:53:49;;;;;;;12.55;2.90;;;;;;;12.53;100.00;99209.19;5055730;28;20084;-61
2023/03/31 10:56:33;;;;;;;14.27;2.83;;;;;;;12.61;100.00;99209.25;5059932;28;20048;-61
2023/03/31 10:59:32;;;;;;;10.50;2.65;;;;;;;12.74;100.00;99206.22;5060479;28;20536;-60
2023/03/31 11:02:19;;;;;;;11.07;2.10;;;;;;;12.79;100.00;99209.22;5062275;28;20449;-60
2023/03/31 11:05:02;;;;;;;12.20;2.20;;;;;;;12.88;100.00;99198.72;5059980;28;20385;-60
2023/03/31 11:07:43;;;;;;;11.15;2.40;;;;;;;13.10;100.00;99192.94;5059362;28;20048;-60
2023/03/31 11:10:37;;;;;;;9.90;2.33;;;;;;;13.10;100.00;99187.66;5063357;28;20044;-61
2023/03/31 11:13:12;;;;;;;11.73;2.30;;;;;;;13.20;100.00;99192.81;5065416;28;20079;-60
2023/03/31 11:15:49;;;;;;;9.95;2.63;;;;;;;13.22;100.00;99188.19;5073954;28;20372;-60
2023/03/31 11:18:32;;;;;;;13.77;2.50;;;;;;;13.28;100.00;99195.50;5074069;28;20048;-59
2023/03/31 11:21:13;;;;;;;13.02;2.45;;;;;;;13.26;100.00;99191.38;5053965;28;20076;-62
2023/03/31 11:23:44;;;;;;;11.40;2.47;;;;;;;13.18;100.00;99192.13;5060610;28;20045;-61
2023/03/31 11:26:20;;;;;;;10.15;2.50;;;;;;;13.09;100.00;99190.44;5073841;28;20052;-60
2023/03/31 11:29:00;;;;;;;12.70;2.30;;;;;;;12.97;100.00;99187.25;5064305;28;20040;-60
2023/03/31 11:31:40;;;;;;;11.35;2.28;;;;;;;13.00;100.00;99186.94;5059529;28;20048;-61
2023/03/31 11:34:32;;;;;;;9.10;1.88;;;;;;;12.93;100.00;99185.91;5063279;28;20487;-60
2023/03/31 11:37:20;;;;;;;12.68;2.10;;;;;;;12.91;100.00;99186.06;5059600;28;20053;-60
2023/03/31 11:40:06;;;;;;;10.32;2.53;;;;;;;12.96;100.00;99175.03;5065583;28;20045;-60
2023/03/31 11:42:41;;;;;;;9.73;2.20;;;;;;;13.10;100.00;99177.09;5060819;28;20047;-61
2023/03/31 11:45:18;;;;;;;9.43;2.08;;;;;;;13.12;100.00;99175.13;5066341;28;20040;-61
2023/03/31 11:47:50;;;;;;;12.73;2.30;;;;;;;13.20;100.00;99171.72;5062596;28;20080;-61
2023/03/31 11:50:22;;;;;;;12.02;2.53;;;;;;;13.23;100.00;99173.22;5061162;28;20440;-61